Time;durP1;ratioP1;P1;durP2;ratioP2;P2;SDS_P1;SDS_P2;PMS_P1;PMS_P2;Temp;Humidity;BMP_temperature;BMP_pressure;BME280_temperature;BME280_humidity;BME280_pressure;Samples;Min_cycle;Max_cycle;Signal;HPM_P1;HPM_P2
2021/08/13 00:02:04;;;;;;;0.20;0.20;;;11.30;32.10;;;;;;4787374;28;20638;-77
2021/08/13 00:04:26;;;;;;;0.20;0.20;;;11.30;31.80;;;;;;4805204;28;20796;-79
2021/08/13 00:06:50;;;;;;;0.20;0.20;;;11.30;31.70;;;;;;4809694;28;20188;-82
2021/08/13 00:09:14;;;;;;;0.13;0.13;;;11.30;31.60;;;;;;4808567;28;20264;-83
2021/08/13 00:11:38;;;;;;;0.20;0.20;;;11.20;31.10;;;;;;4825327;28;20292;-82
2021/08/13 00:14:01;;;;;;;0.20;0.20;;;11.20;31.00;;;;;;4802184;28;20259;-81
2021/08/13 00:16:23;;;;;;;0.10;0.10;;;11.20;31.00;;;;;;4803769;28;20200;-79
2021/08/13 00:18:47;;;;;;;0.20;0.20;;;11.20;31.00;;;;;;4810557;28;20249;-82
2021/08/13 00:21:10;;;;;;;0.10;0.10;;;11.10;31.10;;;;;;4807780;28;20234;-83
2021/08/13 00:23:34;;;;;;;0.20;0.20;;;11.10;31.30;;;;;;4807741;28;20237;-77
2021/08/13 00:25:57;;;;;;;0.20;0.20;;;11.10;31.20;;;;;;4789139;28;20223;-82
2021/08/13 00:28:20;;;;;;;0.20;0.20;;;11.10;31.10;;;;;;4808348;28;20192;-82
2021/08/13 00:30:44;;;;;;;0.10;0.10;;;;;;;;;;4785035;28;20228;-82
2021/08/13 00:33:06;;;;;;;0.20;0.20;;;11.00;31.20;;;;;;4804316;28;20195;-81
2021/08/13 00:35:29;;;;;;;0.10;0.10;;;11.00;31.20;;;;;;4801315;28;20234;-83
2021/08/13 00:37:53;;;;;;;0.10;0.10;;;10.90;31.20;;;;;;4790796;28;20188;-82
2021/08/13 00:40:18;;;;;;;0.13;0.13;;;10.90;31.50;;;;;;4805882;28;20208;-80
2021/08/13 00:42:40;;;;;;;0.20;0.20;;;10.80;31.60;;;;;;4788510;28;20193;-81
2021/08/13 00:45:04;;;;;;;0.20;0.20;;;10.80;31.70;;;;;;4798283;28;20611;-75
2021/08/13 00:47:27;;;;;;;0.17;0.17;;;10.80;31.90;;;;;;4815668;28;20195;-78
2021/08/13 00:50:05;;;;;;;0.20;0.20;;;10.70;32.00;;;;;;4804248;28;20215;-77
2021/08/13 00:52:35;;;;;;;0.20;0.20;;;10.70;32.40;;;;;;4816010;28;20202;-77
2021/08/13 00:54:58;;;;;;;0.17;0.17;;;10.60;32.60;;;;;;4790730;28;20192;-78
2021/08/13 00:57:36;;;;;;;0.20;0.20;;;10.60;32.80;;;;;;4788473;28;20193;-76
2021/08/13 01:00:14;;;;;;;0.20;0.20;;;10.50;32.80;;;;;;4805376;28;20199;-75
2021/08/13 01:02:43;;;;;;;0.30;0.30;;;10.50;32.90;;;;;;4798075;28;20242;-76
2021/08/13 01:05:12;;;;;;;0.10;0.10;;;10.40;32.90;;;;;;4808532;28;20641;-76
2021/08/13 01:07:34;;;;;;;0.20;0.20;;;10.40;32.90;;;;;;4794163;28;20203;-79
2021/08/13 01:09:57;;;;;;;0.07;0.07;;;10.40;32.50;;;;;;4808442;28;20267;-76
2021/08/13 01:12:26;;;;;;;0.20;0.20;;;10.40;32.10;;;;;;4806521;28;20208;-77
2021/08/13 01:14:59;;;;;;;0.10;0.10;;;10.30;31.90;;;;;;4793274;28;20617;-77
2021/08/13 01:17:22;;;;;;;0.10;0.10;;;10.30;32.30;;;;;;4827937;28;20210;-78
2021/08/13 01:19:59;;;;;;;0.10;0.10;;;10.30;32.30;;;;;;4810164;28;20237;-76
2021/08/13 01:22:25;;;;;;;0.20;0.20;;;10.30;31.90;;;;;;4807475;28;20699;-78
2021/08/13 01:24:50;;;;;;;0.10;0.10;;;10.30;31.50;;;;;;4789374;28;20650;-77
2021/08/13 01:27:17;;;;;;;0.20;0.20;;;10.30;30.90;;;;;;4806614;28;20261;-77
2021/08/13 01:29:44;;;;;;;0.10;0.10;;;10.40;30.60;;;;;;4791969;28;20223;-75
2021/08/13 01:32:35;;;;;;;0.23;0.23;;;10.40;30.30;;;;;;4798340;28;20196;-77
2021/08/13 01:35:04;;;;;;;0.20;0.20;;;10.40;30.20;;;;;;4812772;28;20195;-75
2021/08/13 01:37:30;;;;;;;0.20;0.20;;;10.30;30.40;;;;;;4805092;28;20247;-76
2021/08/13 01:40:00;;;;;;;0.10;0.10;;;10.30;30.70;;;;;;4799591;28;20203;-77
2021/08/13 01:42:23;;;;;;;0.20;0.20;;;10.30;30.60;;;;;;4823899;28;20206;-75
2021/08/13 01:44:46;;;;;;;0.20;0.20;;;10.20;30.50;;;;;;4809198;28;20196;-75
2021/08/13 01:47:11;;;;;;;0.10;0.10;;;10.20;30.40;;;;;;4788801;28;20197;-76
2021/08/13 01:49:37;;;;;;;0.20;0.20;;;10.30;30.20;;;;;;4788409;28;20267;-75
2021/08/13 01:52:02;;;;;;;0.03;0.03;;;10.20;30.00;;;;;;4794778;28;20741;-76
2021/08/13 01:54:28;;;;;;;0.10;0.10;;;10.30;30.00;;;;;;4805626;28;20208;-76
2021/08/13 01:56:53;;;;;;;0.13;0.13;;;10.20;30.00;;;;;;4805522;28;20192;-78
2021/08/13 01:59:16;;;;;;;0.20;0.20;;;10.20;30.20;;;;;;4789839;28;20207;-78
2021/08/13 02:01:39;;;;;;;0.20;0.20;;;10.10;30.40;;;;;;4797082;28;20235;-77
2021/08/13 02:04:02;;;;;;;0.20;0.20;;;10.10;30.80;;;;;;4804927;28;20247;-75
2021/08/13 02:06:30;;;;;;;0.20;0.20;;;10.00;30.90;;;;;;4786106;28;20212;-76
2021/08/13 02:08:56;;;;;;;0.10;0.10;;;10.00;30.90;;;;;;4788179;28;20192;-77
2021/08/13 02:11:30;;;;;;;0.10;0.10;;;10.10;30.80;;;;;;4776077;28;20278;-84
2021/08/13 02:13:54;;;;;;;0.20;0.20;;;10.10;30.60;;;;;;4808800;28;20596;-83
2021/08/13 02:16:24;;;;;;;0.10;0.10;;;9.90;30.80;;;;;;4789509;28;20583;-84
2021/08/13 02:18:54;;;;;;;0.30;0.30;;;9.90;30.60;;;;;;4783815;28;20570;-80
2021/08/13 02:21:20;;;;;;;0.20;0.20;;;10.00;30.10;;;;;;4792771;28;20228;-82
2021/08/13 02:23:44;;;;;;;0.10;0.10;;;9.90;30.30;;;;;;4802510;28;20204;-83
2021/08/13 02:26:07;;;;;;;0.20;0.20;;;10.00;99.90;;;;;;4810193;28;20211;-80
2021/08/13 02:28:31;;;;;;;0.20;0.20;;;9.90;30.30;;;;;;4792317;28;20193;-83
2021/08/13 02:30:55;;;;;;;0.20;0.20;;;9.90;30.50;;;;;;4808335;28;20212;-84
2021/08/13 02:33:20;;;;;;;0.20;0.20;;;9.80;30.80;;;;;;4808818;28;20651;-84
2021/08/13 02:35:46;;;;;;;0.10;0.10;;;9.80;30.90;;;;;;4816576;28;20191;-84
2021/08/13 02:38:13;;;;;;;0.30;0.30;;;9.70;31.10;;;;;;4812699;28;20191;-82
2021/08/13 02:40:45;;;;;;;0.20;0.20;;;9.70;31.30;;;;;;4792263;28;20247;-81
2021/08/13 02:43:16;;;;;;;0.20;0.20;;;9.70;31.30;;;;;;4806905;28;20251;-79
2021/08/13 02:45:45;;;;;;;0.20;0.20;;;9.60;31.10;;;;;;4818377;28;20254;-82
2021/08/13 02:48:08;;;;;;;0.20;0.20;;;9.70;30.90;;;;;;4793702;28;20205;-78
2021/08/13 02:50:40;;;;;;;0.13;0.13;;;9.70;30.80;;;;;;4813720;28;20354;-83
2021/08/13 02:53:07;;;;;;;0.10;0.10;;;9.60;30.60;;;;;;4806783;28;20268;-78
2021/08/13 02:55:34;;;;;;;0.10;0.10;;;9.70;30.60;;;;;;4791390;28;20188;-80
2021/08/13 02:58:02;;;;;;;0.20;0.20;;;9.60;30.50;;;;;;4808042;28;20196;-81
2021/08/13 03:00:26;;;;;;;0.20;0.20;;;9.60;30.40;;;;;;4792437;28;20240;-80
2021/08/13 03:02:51;;;;;;;0.10;0.10;;;9.60;30.40;;;;;;4808063;28;20298;-79
2021/08/13 03:05:16;;;;;;;0.10;0.10;;;9.70;30.40;;;;;;4790873;28;20197;-79
2021/08/13 03:07:41;;;;;;;0.10;0.10;;;9.60;30.30;;;;;;4810482;28;20199;-75
2021/08/13 03:10:04;;;;;;;0.10;0.10;;;9.60;30.40;;;;;;4811280;28;20223;-76
2021/08/13 03:12:30;;;;;;;0.20;0.20;;;9.60;30.10;;;;;;4807058;28;20192;-78
2021/08/13 03:14:55;;;;;;;0.10;0.10;;;9.70;30.00;;;;;;4786588;28;20192;-81
2021/08/13 03:17:19;;;;;;;0.20;0.20;;;9.60;99.90;;;;;;4808880;28;20270;-81
2021/08/13 03:19:42;;;;;;;0.20;0.20;;;9.60;99.90;;;;;;4813264;28;20263;-81
2021/08/13 03:22:05;;;;;;;0.10;0.10;;;9.60;99.90;;;;;;4809277;28;20207;-79
2021/08/13 03:24:30;;;;;;;0.20;0.20;;;9.60;99.90;;;;;;4808445;28;20192;-82
2021/08/13 03:26:56;;;;;;;0.20;0.20;;;9.70;99.90;;;;;;4806223;28;20216;-82
2021/08/13 03:29:19;;;;;;;0.20;0.20;;;9.60;99.90;;;;;;4809263;28;20191;-82
2021/08/13 03:31:46;;;;;;;0.30;0.30;;;9.60;99.90;;;;;;4806852;28;20656;-79
2021/08/13 03:34:10;;;;;;;0.10;0.10;;;9.60;99.90;;;;;;4791010;28;20224;-75
2021/08/13 03:36:34;;;;;;;0.10;0.10;;;9.50;99.90;;;;;;4786359;28;20188;-77
2021/08/13 03:38:59;;;;;;;0.20;0.20;;;9.50;99.90;;;;;;4803873;28;20200;-83
2021/08/13 03:41:22;;;;;;;0.10;0.10;;;9.60;99.90;;;;;;4792437;28;20208;-79
2021/08/13 03:43:45;;;;;;;0.10;0.10;;;9.70;99.90;;;;;;4794820;28;20742;-79
2021/08/13 03:46:08;;;;;;;0.10;0.10;;;9.70;99.90;;;;;;4808815;28;20196;-78
2021/08/13 03:48:33;;;;;;;0.20;0.20;;;9.90;99.90;;;;;;4805872;28;20803;-77
2021/08/13 03:50:56;;;;;;;0.20;0.20;;;9.80;99.90;;;;;;4790190;28;20267;-75
2021/08/13 03:53:19;;;;;;;0.10;0.10;;;9.90;99.90;;;;;;4791818;28;20196;-75
2021/08/13 03:55:41;;;;;;;0.20;0.20;;;10.00;99.90;;;;;;4806816;28;20302;-76
2021/08/13 03:58:04;;;;;;;0.17;0.17;;;10.00;99.90;;;;;;4807410;28;20666;-75
2021/08/13 04:00:27;;;;;;;0.20;0.20;;;10.00;99.90;;;;;;4807824;28;20278;-75
2021/08/13 04:02:49;;;;;;;0.30;0.30;;;10.10;99.90;;;;;;4790574;28;20184;-75
2021/08/13 04:05:18;;;;;;;0.10;0.10;;;10.10;99.90;;;;;;4806854;28;20238;-77
2021/08/13 04:07:41;;;;;;;0.10;0.10;;;10.20;99.90;;;;;;4806613;28;20243;-81
2021/08/13 04:10:06;;;;;;;0.20;0.20;;;10.30;99.90;;;;;;4803720;28;20621;-76
2021/08/13 04:12:49;;;;;;;0.10;0.10;;;10.30;99.90;;;;;;4817382;28;20186;-79
2021/08/13 04:15:40;;;;;;;0.20;0.20;;;10.40;99.90;;;;;;4825082;28;20191;-85
2021/08/13 04:18:23;;;;;;;0.20;0.20;;;10.50;99.90;;;;;;4813103;28;20202;-78
2021/08/13 04:21:07;;;;;;;0.10;0.10;;;10.60;99.90;;;;;;4799202;28;20564;-75
2021/08/13 04:23:51;;;;;;;0.10;0.10;;;10.70;99.90;;;;;;4812183;28;20656;-83
2021/08/13 04:26:34;;;;;;;0.10;0.10;;;10.80;99.90;;;;;;4792206;28;20212;-80
2021/08/13 04:29:16;;;;;;;0.10;0.10;;;11.00;99.90;;;;;;4809727;28;20184;-83
2021/08/13 04:31:39;;;;;;;0.20;0.20;;;11.20;99.90;;;;;;4803210;28;20232;-79
2021/08/13 04:34:04;;;;;;;0.20;0.20;;;11.30;99.90;;;;;;4809891;28;20255;-82
2021/08/13 04:36:28;;;;;;;0.20;0.20;;;11.40;99.90;;;;;;4789488;28;20844;-76
2021/08/13 04:38:51;;;;;;;0.10;0.10;;;11.50;99.90;;;;;;4783333;28;20201;-79
2021/08/13 04:41:15;;;;;;;0.13;0.13;;;11.60;99.90;;;;;;4797827;28;20342;-79
2021/08/13 04:43:40;;;;;;;0.20;0.20;;;11.70;99.90;;;;;;4798812;28;20262;-78
2021/08/13 04:46:04;;;;;;;0.10;0.10;;;11.80;99.90;;;;;;4799102;28;20628;-78
2021/08/13 04:48:28;;;;;;;0.10;0.10;;;11.90;99.90;;;;;;4798466;28;20270;-82
2021/08/13 04:50:51;;;;;;;0.10;0.10;;;11.90;99.90;;;;;;4782252;28;20311;-77
2021/08/13 04:53:16;;;;;;;0.20;0.20;;;12.00;99.90;;;;;;4798848;28;20671;-84
2021/08/13 04:55:38;;;;;;;0.10;0.10;;;12.20;99.90;;;;;;4801240;28;20200;-84
2021/08/13 04:58:01;;;;;;;0.20;0.20;;;12.20;99.90;;;;;;4799596;28;20208;-80
2021/08/13 05:00:25;;;;;;;0.20;0.20;;;12.30;99.90;;;;;;4800481;28;20239;-80
2021/08/13 05:02:51;;;;;;;0.10;0.10;;;12.30;99.90;;;;;;4785538;28;20612;-85
2021/08/13 05:05:14;;;;;;;0.10;0.10;;;12.40;99.90;;;;;;4790890;28;20256;-84
2021/08/13 05:07:37;;;;;;;0.20;0.20;;;12.50;99.90;;;;;;4791249;28;20197;-86
2021/08/13 05:10:06;;;;;;;0.10;0.10;;;12.70;99.90;;;;;;4803092;28;20712;-85
2021/08/13 05:12:29;;;;;;;0.20;0.20;;;12.90;99.90;;;;;;4801552;28;20215;-84
2021/08/13 05:14:51;;;;;;;0.10;0.10;;;13.20;99.90;;;;;;4789981;28;20195;-87
2021/08/13 05:17:14;;;;;;;0.10;0.10;;;13.30;30.00;;;;;;4812598;28;20199;-84
2021/08/13 05:19:37;;;;;;;0.20;0.20;;;13.60;31.00;;;;;;4818697;28;20190;-82
2021/08/13 05:21:59;;;;;;;0.10;0.10;;;13.80;32.60;;;;;;4808424;28;20242;-85
2021/08/13 05:24:25;;;;;;;0.10;0.10;;;14.10;35.10;;;;;;4799740;28;20700;-86
2021/08/13 05:26:49;;;;;;;0.10;0.10;;;14.30;38.10;;;;;;4816851;28;20763;-78
2021/08/13 05:29:12;;;;;;;0.10;0.10;;;14.40;40.20;;;;;;4791148;28;20606;-80
2021/08/13 05:31:35;;;;;;;0.10;0.10;;;14.60;42.50;;;;;;4797676;28;20228;-79
2021/08/13 05:33:58;;;;;;;0.20;0.20;;;14.80;44.10;;;;;;4797722;28;20263;-83
2021/08/13 05:36:21;;;;;;;0.10;0.10;;;14.90;44.60;;;;;;4798862;28;20690;-81
2021/08/13 05:38:43;;;;;;;0.13;0.13;;;15.10;45.30;;;;;;4798984;28;20188;-82
2021/08/13 05:41:06;;;;;;;0.03;0.03;;;15.20;45.70;;;;;;4827153;28;20253;-85
2021/08/13 05:43:30;;;;;;;0.10;0.10;;;15.30;46.10;;;;;;4804605;28;20258;-85
2021/08/13 05:45:54;;;;;;;0.13;0.13;;;;;;;;;;4801785;28;20248;-86
2021/08/13 05:48:17;;;;;;;0.10;0.10;;;;;;;;;;4784212;28;20604;-82
2021/08/13 05:50:40;;;;;;;0.10;0.10;;;15.40;45.90;;;;;;4810646;28;20199;-85
2021/08/13 05:53:06;;;;;;;0.00;0.00;;;15.90;46.40;;;;;;4809756;28;20223;-84
2021/08/13 05:55:33;;;;;;;0.10;0.10;;;15.50;46.70;;;;;;4805182;28;20674;-82
2021/08/13 05:57:57;;;;;;;0.10;0.10;;;16.20;46.90;;;;;;4793062;28;20231;-83
2021/08/13 06:00:22;;;;;;;0.00;0.00;;;16.40;47.60;;;;;;4813112;28;20207;-82
2021/08/13 06:02:55;;;;;;;0.10;0.10;;;16.40;47.80;;;;;;4786006;28;20189;-86
2021/08/13 06:05:18;;;;;;;0.10;0.10;;;16.60;48.00;;;;;;4800987;28;20223;-83
2021/08/13 06:07:41;;;;;;;0.03;0.03;;;16.60;47.80;;;;;;4803737;28;20203;-84
2021/08/13 06:10:05;;;;;;;0.00;0.00;;;16.70;48.10;;;;;;4820553;28;20595;-84
2021/08/13 06:12:28;;;;;;;0.10;0.10;;;;;;;;;;4819964;28;20783;-84
2021/08/13 06:14:50;;;;;;;0.10;0.10;;;16.70;48.40;;;;;;4820256;28;20234;-86
2021/08/13 06:17:14;;;;;;;0.00;0.00;;;16.80;48.70;;;;;;4803184;28;20704;-85
2021/08/13 06:19:37;;;;;;;0.10;0.10;;;16.60;48.70;;;;;;4819666;28;20301;-84
2021/08/13 06:22:00;;;;;;;0.10;0.10;;;;;;;;;;4819720;28;20258;-83
2021/08/13 06:24:23;;;;;;;0.10;0.10;;;;;;;;;;4803279;28;20215;-80
2021/08/13 06:26:46;;;;;;;0.10;0.10;;;16.70;48.50;;;;;;4819901;28;20660;-85
2021/08/13 06:29:08;;;;;;;0.10;0.10;;;17.00;48.90;;;;;;4819421;28;20213;-83
2021/08/13 06:31:31;;;;;;;0.50;0.50;;;17.20;49.10;;;;;;4819866;28;20226;-83
2021/08/13 06:33:58;;;;;;;0.10;0.10;;;17.30;49.00;;;;;;4803058;28;20673;-81
2021/08/13 06:36:23;;;;;;;0.10;0.10;;;;;;;;;;4819159;28;20211;-81
2021/08/13 06:38:46;;;;;;;0.10;0.10;;;17.50;49.10;;;;;;4802524;28;20255;-78
2021/08/13 06:41:09;;;;;;;0.10;0.10;;;;;;;;;;4819457;28;20207;-80
2021/08/13 06:43:52;;;;;;;0.10;0.10;;;;;;;;;;4819835;28;20241;-84
2021/08/13 06:46:14;;;;;;;0.03;0.03;;;18.30;49.60;;;;;;4819604;28;20628;-79
2021/08/13 06:48:37;;;;;;;0.20;0.20;;;;;;;;;;4818779;28;20196;-78
2021/08/13 06:51:03;;;;;;;0.10;0.10;;;18.40;50.00;;;;;;4819590;28;20838;-81
2021/08/13 06:53:27;;;;;;;0.10;0.10;;;;;;;;;;4813783;28;20345;-86
2021/08/13 06:55:50;;;;;;;0.00;0.00;;;18.60;50.10;;;;;;4793705;28;20627;-85
2021/08/13 06:58:13;;;;;;;0.13;0.13;;;18.80;50.20;;;;;;4799888;28;20200;-83
2021/08/13 07:00:37;;;;;;;0.10;0.10;;;18.90;50.00;;;;;;4819660;28;20435;-83
2021/08/13 07:03:00;;;;;;;0.10;0.10;;;19.60;50.50;;;;;;4821578;28;20583;-78
2021/08/13 07:05:23;;;;;;;0.10;0.10;;;19.40;50.50;;;;;;4836534;28;20649;-80
2021/08/13 07:07:47;;;;;;;0.10;0.10;;;19.70;50.70;;;;;;4837519;28;20192;-80
2021/08/13 07:10:11;;;;;;;0.10;0.10;;;19.50;50.70;;;;;;4836287;28;20203;-77
2021/08/13 07:12:35;;;;;;;0.10;0.10;;;;;;;;;;4814709;28;20220;-81
2021/08/13 07:14:58;;;;;;;0.00;0.00;;;;;;;;;;4815785;28;20212;-82
2021/08/13 07:17:22;;;;;;;0.10;0.10;;;;;;;;;;4831001;28;20203;-81
2021/08/13 07:19:46;;;;;;;0.20;0.20;;;;;;;;;;4800214;28;20204;-80
2021/08/13 07:22:09;;;;;;;0.10;0.10;;;;;;;;;;4801328;28;20209;-76
2021/08/13 07:24:34;;;;;;;0.10;0.10;;;20.70;53.00;;;;;;4799725;28;20248;-82
2021/08/13 07:26:57;;;;;;;0.10;0.10;;;;;;;;;;4814556;28;20259;-79
2021/08/13 07:29:22;;;;;;;0.10;0.10;;;;;;;;;;4799616;28;20675;-78
2021/08/13 07:31:44;;;;;;;0.20;0.20;;;;;;;;;;4799168;28;20211;-79
2021/08/13 07:34:09;;;;;;;0.50;0.50;;;;;;;;;;4816757;28;20643;-83
2021/08/13 07:36:38;;;;;;;0.63;0.63;;;;;;;;;;4808360;28;20280;-83
2021/08/13 07:39:01;;;;;;;0.73;0.73;;;;;;;;;;4798485;28;20206;-87
2021/08/13 07:41:25;;;;;;;0.43;0.43;;;22.00;54.60;;;;;;4810553;28;20198;-88
2021/08/13 07:43:49;;;;;;;0.47;0.47;;;;;;;;;;4799604;28;20701;-85
2021/08/13 07:46:12;;;;;;;0.53;0.53;;;;;;;;;;4808075;28;20632;-86
2021/08/13 07:48:35;;;;;;;0.50;0.50;;;;;;;;;;4808831;28;20203;-88
2021/08/13 07:50:58;;;;;;;0.40;0.40;;;;;;;;;;4803250;28;20281;-87
2021/08/13 07:53:21;;;;;;;0.53;0.53;;;;;;;;;;4808708;28;20211;-86
2021/08/13 07:55:44;;;;;;;0.33;0.33;;;;;;;;;;4818100;28;20196;-88
2021/08/13 07:58:08;;;;;;;0.60;0.60;;;22.70;55.40;;;;;;4826653;28;20205;-82
2021/08/13 08:00:32;;;;;;;1.67;1.57;;;;;;;;;;4811345;28;20191;-85
2021/08/13 08:02:55;;;;;;;0.53;0.53;;;;;;;;;;4807057;28;20180;-84
2021/08/13 08:05:17;;;;;;;0.33;0.33;;;;;;;;;;4818137;28;20602;-80
2021/08/13 08:07:40;;;;;;;0.37;0.37;;;;;;;;;;4809057;28;20498;-86
2021/08/13 08:10:03;;;;;;;0.30;0.30;;;;;;;;;;4807133;28;20267;-77
2021/08/13 08:12:26;;;;;;;0.47;0.47;;;;;;;;;;4808635;28;20259;-85
2021/08/13 08:14:49;;;;;;;0.30;0.30;;;23.50;56.30;;;;;;4807295;28;20196;-76
2021/08/13 08:17:12;;;;;;;0.73;0.73;;;;;;;;;;4808504;28;20194;-82
2021/08/13 08:19:35;;;;;;;0.30;0.30;;;;;;;;;;4805969;28;20193;-82
2021/08/13 08:21:57;;;;;;;0.30;0.30;;;;;;;;;;4810786;28;20244;-79
2021/08/13 08:24:22;;;;;;;0.50;0.50;;;;;;;;;;4815517;28;20185;-85
2021/08/13 08:26:45;;;;;;;0.20;0.20;;;;;;;;;;4806817;28;20210;-84
2021/08/13 08:29:07;;;;;;;0.50;0.40;;;;;;;;;;4808913;28;20191;-81
2021/08/13 08:31:32;;;;;;;0.40;0.40;;;24.20;57.10;;;;;;4809730;28;20219;-82
2021/08/13 08:33:54;;;;;;;0.20;0.20;;;;;;;;;;4808279;28;20256;-80
2021/08/13 08:36:17;;;;;;;0.30;0.30;;;;;;;;;;4812123;28;20221;-82
2021/08/13 08:38:40;;;;;;;0.40;0.40;;;;;;;;;;4804437;28;20250;-83
2021/08/13 08:41:04;;;;;;;0.10;0.10;;;24.40;57.90;;;;;;4809040;28;20249;-76
2021/08/13 08:43:27;;;;;;;0.30;0.30;;;;;;;;;;4804626;28;20268;-87
2021/08/13 08:45:49;;;;;;;0.30;0.30;;;;;;;;;;4805520;28;20195;-81
2021/08/13 08:48:14;;;;;;;0.10;0.10;;;24.80;58.10;;;;;;4814556;28;20218;-81
2021/08/13 08:50:39;;;;;;;0.20;0.20;;;24.90;58.20;;;;;;4840500;28;20202;-87
2021/08/13 08:53:03;;;;;;;0.30;0.30;;;25.00;50.80;;;;;;4816564;28;20271;-85
2021/08/13 08:55:26;;;;;;;0.10;0.10;;;25.10;43.50;;;;;;4817915;28;20202;-83
2021/08/13 08:57:50;;;;;;;0.20;0.20;;;;;;;;;;4831560;28;20240;-81
2021/08/13 09:00:14;;;;;;;0.20;0.20;;;25.20;43.40;;;;;;4818294;28;20206;-78
2021/08/13 09:02:37;;;;;;;0.30;0.30;;;;;;;;;;4815075;28;20186;-83
2021/08/13 09:05:02;;;;;;;0.50;0.50;;;26.00;44.20;;;;;;4816806;28;20564;-79
2021/08/13 09:07:25;;;;;;;1.23;1.13;;;;;;;;;;4816126;28;20224;-84
2021/08/13 09:09:47;;;;;;;1.80;1.20;;;;;;;;;;4816715;28;20188;-82
2021/08/13 09:12:10;;;;;;;1.80;1.17;;;;;;;;;;4811430;28;20225;-79
2021/08/13 09:14:40;;;;;;;1.83;1.30;;;28.40;45.60;;;;;;4811554;28;20227;-83
2021/08/13 09:17:04;;;;;;;0.87;0.77;;;29.00;46.40;;;;;;4809069;28;20199;-84
2021/08/13 09:19:42;;;;;;;3.07;1.73;;;29.60;47.00;;;;;;4831858;28;20623;-84
2021/08/13 09:22:11;;;;;;;1.10;0.90;;;30.30;47.40;;;;;;4806364;28;20226;-85
2021/08/13 09:24:38;;;;;;;1.53;1.20;;;30.70;47.70;;;;;;4803883;28;20184;-79
2021/08/13 09:27:16;;;;;;;1.30;0.90;;;32.10;48.30;;;;;;4805560;28;20220;-83
2021/08/13 09:29:39;;;;;;;1.07;0.90;;;;;;;;;;4780491;28;20195;-79
2021/08/13 09:32:26;;;;;;;1.03;0.83;;;33.90;49.40;;;;;;4812975;28;20254;-83
2021/08/13 09:34:51;;;;;;;0.63;0.60;;;;;;;;;;4812158;28;20237;-78
2021/08/13 09:37:17;;;;;;;1.38;1.13;;;37.20;50.80;;;;;;4805563;28;20594;-82
2021/08/13 09:39:41;;;;;;;1.33;1.10;;;38.60;51.10;;;;;;4812090;28;20199;-80
2021/08/13 09:42:09;;;;;;;0.63;0.63;;;38.70;51.50;;;;;;4824925;28;20194;-80
2021/08/13 09:44:34;;;;;;;1.30;0.88;;;39.10;51.40;;;;;;4800550;28;20340;-84
2021/08/13 09:46:59;;;;;;;1.40;1.10;;;40.60;52.30;;;;;;4800844;28;20203;-83
2021/08/13 09:49:22;;;;;;;1.02;0.80;;;;;;;;;;4821343;28;20191;-82
2021/08/13 09:51:45;;;;;;;0.70;0.60;;;;;;;;;;4819617;28;20195;-84
2021/08/13 09:54:10;;;;;;;1.25;0.93;;;40.40;52.20;;;;;;4811112;28;20298;-85
2021/08/13 09:56:35;;;;;;;1.10;0.90;;;40.70;52.20;;;;;;4808127;28;20275;-81
2021/08/13 09:59:15;;;;;;;0.70;0.60;;;41.50;52.70;;;;;;4823935;28;20266;-77
2021/08/13 10:01:40;;;;;;;3.00;1.63;;;42.50;52.80;;;;;;4811194;28;20250;-76
2021/08/13 10:04:03;;;;;;;1.95;1.00;;;;;;;;;;4819976;28;20261;-77
2021/08/13 10:06:30;;;;;;;2.05;1.17;;;44.40;53.80;;;;;;4819792;28;20203;-77
2021/08/13 10:08:53;;;;;;;1.73;1.10;;;;;;;;;;4802158;28;20196;-76
2021/08/13 10:11:17;;;;;;;2.03;1.40;;;45.70;54.10;;;;;;4808755;28;20241;-86
2021/08/13 10:13:49;;;;;;;2.20;1.38;;;;;;;;;;4805879;28;20251;-83
2021/08/13 10:16:22;;;;;;;1.92;1.05;;;46.00;54.50;;;;;;4802094;28;20191;-89
2021/08/13 10:18:47;;;;;;;2.38;1.50;;;;;;;;;;4812986;28;20259;-84
2021/08/13 10:21:10;;;;;;;2.22;1.30;;;;;;;;;;4828667;28;20214;-81
2021/08/13 10:23:33;;;;;;;2.40;1.55;;;;;;;;;;4816617;28;20218;-82
2021/08/13 10:25:57;;;;;;;1.75;1.10;;;47.70;55.10;;;;;;4811720;28;20215;-85
2021/08/13 10:28:27;;;;;;;3.13;1.40;;;47.30;54.90;;;;;;4793318;28;20286;-84
2021/08/13 10:30:57;;;;;;;2.30;1.13;;;47.30;54.90;;;;;;4795642;28;20634;-84
2021/08/13 10:33:20;;;;;;;3.33;1.70;;;47.70;55.10;;;;;;4799733;28;20258;-77
2021/08/13 10:35:48;;;;;;;2.58;1.20;;;48.00;55.20;;;;;;4814041;28;20238;-76
2021/08/13 10:38:12;;;;;;;1.95;1.02;;;48.40;55.30;;;;;;4818670;28;20211;-77
2021/08/13 10:40:38;;;;;;;3.28;1.90;;;48.70;55.30;;;;;;4802109;28;20230;-77
2021/08/13 10:43:03;;;;;;;1.70;1.08;;;49.20;55.60;;;;;;4803457;28;20939;-86
2021/08/13 10:45:32;;;;;;;3.00;1.55;;;49.50;55.70;;;;;;4802639;28;20250;-79
2021/08/13 10:48:02;;;;;;;1.83;1.05;;;49.60;55.70;;;;;;4800882;28;20243;-79
2021/08/13 10:50:25;;;;;;;1.67;1.20;;;;;;;;;;4837966;28;20202;-84
2021/08/13 10:52:48;;;;;;;2.05;1.17;;;;;;;;;;4854258;28;20590;-84
2021/08/13 10:55:41;;;;;;;3.17;1.40;;;51.70;56.40;;;;;;4821387;28;20613;-84
2021/08/13 10:58:04;;;;;;;2.05;1.15;;;51.40;56.20;;;;;;4837244;28;20280;-78
2021/08/13 11:01:04;;;;;;;7.97;3.70;;;50.30;56.00;;;;;;4819762;28;20191;-81
2021/08/13 11:03:27;;;;;;;3.30;1.73;;;;;;;;;;4837518;28;20665;-76
2021/08/13 11:05:51;;;;;;;1.75;1.02;;;47.10;54.90;;;;;;4837102;28;20273;-76
2021/08/13 11:08:16;;;;;;;2.75;1.40;;;;;;;;;;4820297;28;20672;-75
2021/08/13 11:10:55;;;;;;;1.75;1.10;;;44.40;54.00;;;;;;4821183;28;20234;-76
2021/08/13 11:13:19;;;;;;;2.80;1.65;;;42.40;53.30;;;;;;4817862;28;20218;-77
2021/08/13 11:15:47;;;;;;;1.65;1.05;;;41.10;52.80;;;;;;4786118;28;20208;-89
2021/08/13 11:18:28;;;;;;;1.17;0.77;;;40.20;52.50;;;;;;4800445;28;20228;-88
2021/08/13 11:20:51;;;;;;;1.52;1.00;;;;;;;;;;4800691;28;20200;-83
2021/08/13 11:23:14;;;;;;;1.40;1.02;;;;;;;;;;4788809;28;20219;-85
2021/08/13 11:25:48;;;;;;;1.73;1.52;;;37.80;51.60;;;;;;4818740;28;20448;-92
2021/08/13 11:28:19;;;;;;;1.27;0.90;;;37.70;51.60;;;;;;4816226;28;20306;-89
2021/08/13 11:30:48;;;;;;;1.27;1.10;;;38.00;51.70;;;;;;4784924;28;20259;-92
2021/08/13 11:33:38;;;;;;;1.67;1.15;;;39.00;51.80;;;;;;4809416;28;20203;-82
2021/08/13 11:36:03;;;;;;;2.08;1.17;;;41.60;52.90;;;;;;4786008;28;20629;-76
2021/08/13 11:39:02;;;;;;;1.50;0.95;;;43.10;53.40;;;;;;4820147;28;20199;-77
2021/08/13 11:41:27;;;;;;;1.75;1.00;;;45.90;54.20;;;;;;4812435;28;20199;-89
2021/08/13 11:43:56;;;;;;;1.80;1.05;;;46.50;54.70;;;;;;4813752;28;20187;-94
2021/08/13 11:46:25;;;;;;;2.38;1.10;;;48.10;55.10;;;;;;4800227;28;20192;-95
2021/08/13 11:48:50;;;;;;;2.00;1.00;;;49.30;55.60;;;;;;4796954;28;20262;-89
2021/08/13 11:51:14;;;;;;;2.85;1.40;;;;;;;;;;4811633;28;20191;-86
2021/08/13 11:53:37;;;;;;;3.40;1.92;;;;;;;;;;4814333;28;20195;-79
2021/08/13 11:56:02;;;;;;;2.20;1.30;;;47.80;55.10;;;;;;4804198;28;20199;-87
2021/08/13 11:58:25;;;;;;;1.60;0.90;;;;;;;;;;4804993;28;20330;-90
2021/08/13 12:01:02;;;;;;;1.17;0.70;;;48.40;55.40;;;;;;4785009;28;20279;-82
2021/08/13 12:03:26;;;;;;;2.38;1.20;;;49.60;55.80;;;;;;4815784;28;20709;-89
2021/08/13 12:05:49;;;;;;;3.08;1.63;;;;;;;;;;4812359;28;20190;-84
2021/08/13 12:08:14;;;;;;;2.65;1.50;;;48.30;55.40;;;;;;4790952;28;20263;-86
2021/08/13 12:10:46;;;;;;;3.95;2.25;;;48.80;55.40;;;;;;4792543;28;20290;-81
2021/08/13 12:13:11;;;;;;;2.55;1.25;;;49.10;55.60;;;;;;4815000;28;20215;-88
2021/08/13 12:15:35;;;;;;;2.90;1.58;;;50.00;55.70;;;;;;4792653;28;20223;-86
2021/08/13 12:18:00;;;;;;;1.80;1.20;;;50.40;56.10;;;;;;4804416;28;20350;-87
2021/08/13 12:20:25;;;;;;;2.05;1.30;;;49.00;55.50;;;;;;4805132;28;20772;-85
2021/08/13 12:22:47;;;;;;;1.77;1.23;;;49.30;55.60;;;;;;4805327;28;20261;-80
2021/08/13 12:25:12;;;;;;;2.30;1.38;;;48.80;55.30;;;;;;4806551;28;20235;-82
2021/08/13 12:27:37;;;;;;;3.50;1.85;;;48.90;55.50;;;;;;4795349;28;20193;-79
2021/08/13 12:30:01;;;;;;;3.05;1.77;;;54.20;49.40;;;;;;4801669;28;20208;-78
2021/08/13 12:32:35;;;;;;;2.00;1.25;;;49.70;55.70;;;;;;4809700;28;20289;-84
2021/08/13 12:34:59;;;;;;;1.60;1.13;;;49.60;55.80;;;;;;4809649;28;20200;-83
2021/08/13 12:37:23;;;;;;;4.47;2.65;;;50.80;56.10;;;;;;4805691;28;20630;-88
2021/08/13 12:39:47;;;;;;;2.85;1.52;;;53.00;56.90;;;;;;4797295;28;20200;-82
2021/08/13 12:42:11;;;;;;;1.80;1.10;;;53.20;56.80;;;;;;4814468;28;20242;-79
2021/08/13 12:44:36;;;;;;;2.28;1.30;;;53.70;56.90;;;;;;4813645;28;20322;-94
2021/08/13 12:47:00;;;;;;;1.90;1.10;;;53.70;57.00;;;;;;4807541;28;20191;-91
2021/08/13 12:49:24;;;;;;;2.35;1.25;;;53.50;57.00;;;;;;4811587;28;20211;-87
2021/08/13 12:51:46;;;;;;;1.17;0.88;;;53.50;57.00;;;;;;4811113;28;20218;-92
2021/08/13 12:54:33;;;;;;;2.83;1.58;;;52.30;56.70;;;;;;4807141;28;20554;-84
2021/08/13 12:56:57;;;;;;;1.90;1.20;;;52.30;56.70;;;;;;4822604;28;20195;-86
2021/08/13 12:59:31;;;;;;;1.70;1.08;;;52.40;56.70;;;;;;4806109;28;20206;-89
2021/08/13 13:01:56;;;;;;;2.60;1.42;;;52.40;56.70;;;;;;4800223;28;20755;-93
2021/08/13 13:04:19;;;;;;;1.55;1.13;;;52.40;56.70;;;;;;4770270;28;20204;-93